sensor_id;sensor_type;location;lat;lon;timestamp;P1;durP1;ratioP1;P2;durP2;ratioP2
3843;SDS011;1937;51.444;6.484;2022-10-31T00:01:23;22.47;;;9.60;;
3843;SDS011;1937;51.444;6.484;2022-10-31T00:03:53;19.27;;;9.30;;
3843;SDS011;1937;51.444;6.484;2022-10-31T00:06:22;21.17;;;10.57;;
3843;SDS011;1937;51.444;6.484;2022-10-31T00:08:51;14.80;;;9.33;;
3843;SDS011;1937;51.444;6.484;2022-10-31T00:11:28;24.43;;;11.77;;
3843;SDS011;1937;51.444;6.484;2022-10-31T00:13:56;14.90;;;8.90;;
3843;SDS011;1937;51.444;6.484;2022-10-31T00:16:25;20.83;;;10.13;;
3843;SDS011;1937;51.444;6.484;2022-10-31T00:18:55;20.50;;;9.40;;
3843;SDS011;1937;51.444;6.484;2022-10-31T00:21:26;13.03;;;7.87;;
3843;SDS011;1937;51.444;6.484;2022-10-31T00:23:56;20.00;;;9.53;;
3843;SDS011;1937;51.444;6.484;2022-10-31T00:26:27;17.23;;;8.53;;
3843;SDS011;1937;51.444;6.484;2022-10-31T00:28:56;16.10;;;8.70;;
3843;SDS011;1937;51.444;6.484;2022-10-31T00:31:27;13.70;;;8.80;;
3843;SDS011;1937;51.444;6.484;2022-10-31T00:33:56;16.33;;;8.70;;
3843;SDS011;1937;51.444;6.484;2022-10-31T00:36:28;19.37;;;9.53;;
3843;SDS011;1937;51.444;6.484;2022-10-31T00:38:57;24.93;;;10.10;;
3843;SDS011;1937;51.444;6.484;2022-10-31T00:41:27;18.37;;;10.07;;
3843;SDS011;1937;51.444;6.484;2022-10-31T00:43:58;14.80;;;8.60;;
3843;SDS011;1937;51.444;6.484;2022-10-31T00:46:27;18.97;;;9.47;;
3843;SDS011;1937;51.444;6.484;2022-10-31T00:48:55;15.10;;;8.87;;
3843;SDS011;1937;51.444;6.484;2022-10-31T00:51:23;18.97;;;8.93;;
3843;SDS011;1937;51.444;6.484;2022-10-31T00:53:52;19.40;;;11.00;;
3843;SDS011;1937;51.444;6.484;2022-10-31T00:56:20;15.60;;;9.63;;
3843;SDS011;1937;51.444;6.484;2022-10-31T00:58:50;16.20;;;9.43;;
3843;SDS011;1937;51.444;6.484;2022-10-31T01:01:19;14.97;;;9.37;;
3843;SDS011;1937;51.444;6.484;2022-10-31T01:03:47;17.70;;;9.67;;
3843;SDS011;1937;51.444;6.484;2022-10-31T01:06:15;14.10;;;8.13;;
3843;SDS011;1937;51.444;6.484;2022-10-31T01:08:43;18.77;;;9.73;;
3843;SDS011;1937;51.444;6.484;2022-10-31T01:11:13;17.20;;;8.30;;
3843;SDS011;1937;51.444;6.484;2022-10-31T01:13:43;16.30;;;9.20;;
3843;SDS011;1937;51.444;6.484;2022-10-31T01:16:15;16.53;;;9.77;;
3843;SDS011;1937;51.444;6.484;2022-10-31T01:18:45;14.87;;;9.97;;
3843;SDS011;1937;51.444;6.484;2022-10-31T01:21:14;15.43;;;10.50;;
3843;SDS011;1937;51.444;6.484;2022-10-31T01:23:44;14.33;;;8.43;;
3843;SDS011;1937;51.444;6.484;2022-10-31T01:26:14;15.23;;;9.53;;
3843;SDS011;1937;51.444;6.484;2022-10-31T01:28:45;20.40;;;10.33;;
3843;SDS011;1937;51.444;6.484;2022-10-31T01:31:16;15.23;;;9.20;;
3843;SDS011;1937;51.444;6.484;2022-10-31T01:33:47;15.67;;;8.67;;
3843;SDS011;1937;51.444;6.484;2022-10-31T01:36:17;20.67;;;9.60;;
3843;SDS011;1937;51.444;6.484;2022-10-31T01:38:47;17.20;;;9.60;;
3843;SDS011;1937;51.444;6.484;2022-10-31T01:41:17;22.50;;;10.70;;
3843;SDS011;1937;51.444;6.484;2022-10-31T01:43:48;15.47;;;9.57;;
3843;SDS011;1937;51.444;6.484;2022-10-31T01:46:21;18.70;;;10.83;;
3843;SDS011;1937;51.444;6.484;2022-10-31T01:48:52;23.23;;;10.67;;
3843;SDS011;1937;51.444;6.484;2022-10-31T01:51:23;20.97;;;11.37;;
3843;SDS011;1937;51.444;6.484;2022-10-31T01:53:55;17.83;;;10.63;;
3843;SDS011;1937;51.444;6.484;2022-10-31T01:56:27;16.03;;;10.97;;
3843;SDS011;1937;51.444;6.484;2022-10-31T01:58:56;21.10;;;10.47;;
3843;SDS011;1937;51.444;6.484;2022-10-31T02:01:28;16.67;;;9.50;;
3843;SDS011;1937;51.444;6.484;2022-10-31T02:03:58;16.70;;;8.80;;
3843;SDS011;1937;51.444;6.484;2022-10-31T02:06:27;16.00;;;9.60;;
3843;SDS011;1937;51.444;6.484;2022-10-31T02:09:04;20.27;;;10.30;;
3843;SDS011;1937;51.444;6.484;2022-10-31T02:11:32;15.77;;;9.10;;
3843;SDS011;1937;51.444;6.484;2022-10-31T02:14:04;20.10;;;8.73;;
3843;SDS011;1937;51.444;6.484;2022-10-31T02:16:33;18.73;;;9.20;;
3843;SDS011;1937;51.444;6.484;2022-10-31T02:19:03;12.10;;;7.90;;
3843;SDS011;1937;51.444;6.484;2022-10-31T02:21:36;11.47;;;8.47;;
3843;SDS011;1937;51.444;6.484;2022-10-31T02:27:16;10.97;;;7.77;;
3843;SDS011;1937;51.444;6.484;2022-10-31T02:30:02;14.50;;;7.90;;
3843;SDS011;1937;51.444;6.484;2022-10-31T02:35:43;12.57;;;7.37;;
3843;SDS011;1937;51.444;6.484;2022-10-31T02:38:29;9.80;;;7.03;;
3843;SDS011;1937;51.444;6.484;2022-10-31T02:41:07;15.00;;;7.37;;
3843;SDS011;1937;51.444;6.484;2022-10-31T02:43:48;7.63;;;6.27;;
3843;SDS011;1937;51.444;6.484;2022-10-31T02:46:24;10.47;;;7.37;;
3843;SDS011;1937;51.444;6.484;2022-10-31T02:49:00;11.73;;;7.40;;
3843;SDS011;1937;51.444;6.484;2022-10-31T02:51:32;13.03;;;7.40;;
3843;SDS011;1937;51.444;6.484;2022-10-31T02:54:01;15.87;;;10.00;;
3843;SDS011;1937;51.444;6.484;2022-10-31T02:56:30;16.77;;;8.70;;
3843;SDS011;1937;51.444;6.484;2022-10-31T02:59:00;13.67;;;8.93;;
3843;SDS011;1937;51.444;6.484;2022-10-31T03:01:42;16.53;;;9.70;;
3843;SDS011;1937;51.444;6.484;2022-10-31T03:04:35;13.90;;;8.83;;
3843;SDS011;1937;51.444;6.484;2022-10-31T03:07:15;13.40;;;8.47;;
3843;SDS011;1937;51.444;6.484;2022-10-31T03:09:50;14.33;;;8.43;;
3843;SDS011;1937;51.444;6.484;2022-10-31T03:12:24;16.83;;;8.17;;
3843;SDS011;1937;51.444;6.484;2022-10-31T03:14:59;14.20;;;8.47;;
3843;SDS011;1937;51.444;6.484;2022-10-31T03:17:35;25.97;;;9.80;;
3843;SDS011;1937;51.444;6.484;2022-10-31T03:20:10;13.97;;;8.77;;
3843;SDS011;1937;51.444;6.484;2022-10-31T03:22:39;13.53;;;8.80;;
3843;SDS011;1937;51.444;6.484;2022-10-31T03:25:10;20.53;;;9.80;;
3843;SDS011;1937;51.444;6.484;2022-10-31T03:27:40;15.37;;;9.37;;
3843;SDS011;1937;51.444;6.484;2022-10-31T03:30:10;13.07;;;8.37;;
3843;SDS011;1937;51.444;6.484;2022-10-31T03:32:40;15.73;;;9.10;;
3843;SDS011;1937;51.444;6.484;2022-10-31T03:35:13;16.20;;;9.23;;
3843;SDS011;1937;51.444;6.484;2022-10-31T03:37:45;17.10;;;9.30;;
3843;SDS011;1937;51.444;6.484;2022-10-31T03:40:16;16.93;;;9.40;;
3843;SDS011;1937;51.444;6.484;2022-10-31T03:42:50;14.50;;;9.93;;
3843;SDS011;1937;51.444;6.484;2022-10-31T03:45:24;18.23;;;9.07;;
3843;SDS011;1937;51.444;6.484;2022-10-31T03:47:55;14.30;;;7.87;;
3843;SDS011;1937;51.444;6.484;2022-10-31T03:50:27;10.70;;;7.30;;
3843;SDS011;1937;51.444;6.484;2022-10-31T03:53:04;10.77;;;6.70;;
3843;SDS011;1937;51.444;6.484;2022-10-31T03:55:38;9.70;;;6.10;;
3843;SDS011;1937;51.444;6.484;2022-10-31T03:58:09;10.70;;;6.47;;
3843;SDS011;1937;51.444;6.484;2022-10-31T04:00:45;8.57;;;5.50;;
3843;SDS011;1937;51.444;6.484;2022-10-31T04:03:17;13.50;;;7.77;;
3843;SDS011;1937;51.444;6.484;2022-10-31T04:05:51;13.50;;;7.20;;
3843;SDS011;1937;51.444;6.484;2022-10-31T04:08:23;28.03;;;8.83;;
3843;SDS011;1937;51.444;6.484;2022-10-31T04:10:54;18.77;;;8.70;;
3843;SDS011;1937;51.444;6.484;2022-10-31T04:13:25;14.07;;;7.63;;
3843;SDS011;1937;51.444;6.484;2022-10-31T04:15:56;13.70;;;7.73;;
3843;SDS011;1937;51.444;6.484;2022-10-31T04:18:25;10.50;;;6.40;;
3843;SDS011;1937;51.444;6.484;2022-10-31T04:21:02;13.00;;;7.17;;
3843;SDS011;1937;51.444;6.484;2022-10-31T04:23:34;9.17;;;6.30;;
3843;SDS011;1937;51.444;6.484;2022-10-31T04:26:03;10.00;;;6.63;;
3843;SDS011;1937;51.444;6.484;2022-10-31T04:28:32;11.47;;;7.63;;
3843;SDS011;1937;51.444;6.484;2022-10-31T04:31:00;11.97;;;7.40;;
3843;SDS011;1937;51.444;6.484;2022-10-31T04:33:29;9.93;;;6.60;;
3843;SDS011;1937;51.444;6.484;2022-10-31T04:35:57;14.13;;;8.57;;
3843;SDS011;1937;51.444;6.484;2022-10-31T04:38:27;16.20;;;8.07;;
3843;SDS011;1937;51.444;6.484;2022-10-31T04:40:55;15.63;;;8.00;;
3843;SDS011;1937;51.444;6.484;2022-10-31T04:43:25;12.00;;;7.70;;
3843;SDS011;1937;51.444;6.484;2022-10-31T04:45:54;12.93;;;7.93;;
3843;SDS011;1937;51.444;6.484;2022-10-31T04:48:22;8.77;;;6.70;;
3843;SDS011;1937;51.444;6.484;2022-10-31T04:50:51;14.40;;;9.40;;
3843;SDS011;1937;51.444;6.484;2022-10-31T04:53:24;15.13;;;8.50;;
3843;SDS011;1937;51.444;6.484;2022-10-31T04:55:54;17.40;;;8.50;;
3843;SDS011;1937;51.444;6.484;2022-10-31T04:58:23;11.83;;;7.67;;
3843;SDS011;1937;51.444;6.484;2022-10-31T05:00:55;12.43;;;8.90;;
3843;SDS011;1937;51.444;6.484;2022-10-31T05:03:24;15.90;;;7.73;;
3843;SDS011;1937;51.444;6.484;2022-10-31T05:05:52;9.67;;;7.03;;
3843;SDS011;1937;51.444;6.484;2022-10-31T05:08:21;8.10;;;6.30;;
3843;SDS011;1937;51.444;6.484;2022-10-31T05:10:49;12.13;;;7.50;;
3843;SDS011;1937;51.444;6.484;2022-10-31T05:13:19;12.20;;;7.70;;
3843;SDS011;1937;51.444;6.484;2022-10-31T05:15:47;12.47;;;6.90;;
3843;SDS011;1937;51.444;6.484;2022-10-31T05:18:18;13.50;;;7.13;;
3843;SDS011;1937;51.444;6.484;2022-10-31T05:20:46;13.40;;;9.20;;
3843;SDS011;1937;51.444;6.484;2022-10-31T05:23:14;21.23;;;6.57;;
3843;SDS011;1937;51.444;6.484;2022-10-31T05:25:43;11.80;;;6.53;;
3843;SDS011;1937;51.444;6.484;2022-10-31T05:28:11;14.87;;;9.33;;
3843;SDS011;1937;51.444;6.484;2022-10-31T05:30:41;18.07;;;8.30;;
3843;SDS011;1937;51.444;6.484;2022-10-31T05:33:09;14.93;;;9.10;;
3843;SDS011;1937;51.444;6.484;2022-10-31T05:35:38;12.17;;;8.20;;
3843;SDS011;1937;51.444;6.484;2022-10-31T05:38:06;18.53;;;11.80;;
3843;SDS011;1937;51.444;6.484;2022-10-31T05:40:34;25.37;;;12.97;;
3843;SDS011;1937;51.444;6.484;2022-10-31T05:43:03;21.33;;;13.47;;
3843;SDS011;1937;51.444;6.484;2022-10-31T05:45:31;28.20;;;14.37;;
3843;SDS011;1937;51.444;6.484;2022-10-31T05:48:01;27.63;;;16.47;;
3843;SDS011;1937;51.444;6.484;2022-10-31T05:50:30;28.80;;;16.00;;
3843;SDS011;1937;51.444;6.484;2022-10-31T05:53:00;25.33;;;16.60;;
3843;SDS011;1937;51.444;6.484;2022-10-31T05:55:31;23.13;;;15.33;;
3843;SDS011;1937;51.444;6.484;2022-10-31T05:58:01;21.10;;;13.03;;
3843;SDS011;1937;51.444;6.484;2022-10-31T06:00:29;16.27;;;11.47;;
3843;SDS011;1937;51.444;6.484;2022-10-31T06:03:02;19.57;;;12.03;;
3843;SDS011;1937;51.444;6.484;2022-10-31T06:05:31;15.63;;;10.43;;
3843;SDS011;1937;51.444;6.484;2022-10-31T06:08:00;23.20;;;12.47;;
3843;SDS011;1937;51.444;6.484;2022-10-31T06:10:29;22.40;;;11.60;;
3843;SDS011;1937;51.444;6.484;2022-10-31T06:12:57;20.97;;;11.90;;
3843;SDS011;1937;51.444;6.484;2022-10-31T06:15:26;15.10;;;10.77;;
3843;SDS011;1937;51.444;6.484;2022-10-31T06:18:02;14.13;;;9.90;;
3843;SDS011;1937;51.444;6.484;2022-10-31T06:20:32;16.43;;;9.70;;
3843;SDS011;1937;51.444;6.484;2022-10-31T06:23:01;21.90;;;12.20;;
3843;SDS011;1937;51.444;6.484;2022-10-31T06:25:31;29.43;;;13.97;;
3843;SDS011;1937;51.444;6.484;2022-10-31T06:28:00;21.40;;;11.93;;
3843;SDS011;1937;51.444;6.484;2022-10-31T06:30:29;20.27;;;10.83;;
3843;SDS011;1937;51.444;6.484;2022-10-31T06:33:02;27.23;;;12.80;;
3843;SDS011;1937;51.444;6.484;2022-10-31T06:35:32;21.30;;;11.30;;
3843;SDS011;1937;51.444;6.484;2022-10-31T06:38:00;26.07;;;10.80;;
3843;SDS011;1937;51.444;6.484;2022-10-31T06:40:28;16.57;;;10.50;;
3843;SDS011;1937;51.444;6.484;2022-10-31T06:42:57;15.30;;;8.93;;
3843;SDS011;1937;51.444;6.484;2022-10-31T06:45:26;15.50;;;8.27;;
3843;SDS011;1937;51.444;6.484;2022-10-31T06:47:55;16.53;;;9.80;;
3843;SDS011;1937;51.444;6.484;2022-10-31T06:50:26;15.23;;;9.00;;
3843;SDS011;1937;51.444;6.484;2022-10-31T06:52:55;19.17;;;11.00;;
3843;SDS011;1937;51.444;6.484;2022-10-31T06:55:25;19.13;;;10.47;;
3843;SDS011;1937;51.444;6.484;2022-10-31T06:57:54;24.03;;;10.33;;
3843;SDS011;1937;51.444;6.484;2022-10-31T07:00:26;22.37;;;12.43;;
3843;SDS011;1937;51.444;6.484;2022-10-31T07:02:56;27.00;;;12.30;;
3843;SDS011;1937;51.444;6.484;2022-10-31T07:05:38;27.93;;;12.83;;
3843;SDS011;1937;51.444;6.484;2022-10-31T07:08:09;21.13;;;12.60;;
3843;SDS011;1937;51.444;6.484;2022-10-31T07:10:39;15.83;;;9.83;;
3843;SDS011;1937;51.444;6.484;2022-10-31T07:13:12;18.13;;;10.60;;
3843;SDS011;1937;51.444;6.484;2022-10-31T07:15:41;16.33;;;9.43;;
3843;SDS011;1937;51.444;6.484;2022-10-31T07:18:11;22.37;;;10.93;;
3843;SDS011;1937;51.444;6.484;2022-10-31T07:20:41;23.73;;;12.40;;
3843;SDS011;1937;51.444;6.484;2022-10-31T07:23:09;25.63;;;11.90;;
3843;SDS011;1937;51.444;6.484;2022-10-31T07:25:39;18.33;;;12.63;;
3843;SDS011;1937;51.444;6.484;2022-10-31T07:28:08;18.80;;;10.17;;
3843;SDS011;1937;51.444;6.484;2022-10-31T07:30:38;18.13;;;10.80;;
3843;SDS011;1937;51.444;6.484;2022-10-31T07:33:06;16.53;;;9.80;;
3843;SDS011;1937;51.444;6.484;2022-10-31T07:35:35;14.93;;;9.87;;
3843;SDS011;1937;51.444;6.484;2022-10-31T07:38:09;15.87;;;8.77;;
3843;SDS011;1937;51.444;6.484;2022-10-31T07:40:38;17.47;;;11.70;;
3843;SDS011;1937;51.444;6.484;2022-10-31T07:43:08;18.03;;;10.83;;
3843;SDS011;1937;51.444;6.484;2022-10-31T07:45:37;16.23;;;10.27;;
3843;SDS011;1937;51.444;6.484;2022-10-31T07:48:05;15.80;;;9.40;;
3843;SDS011;1937;51.444;6.484;2022-10-31T07:50:34;14.43;;;10.33;;
3843;SDS011;1937;51.444;6.484;2022-10-31T07:53:04;15.90;;;10.03;;
3843;SDS011;1937;51.444;6.484;2022-10-31T07:55:36;14.90;;;9.60;;
3843;SDS011;1937;51.444;6.484;2022-10-31T07:58:06;17.90;;;11.37;;
3843;SDS011;1937;51.444;6.484;2022-10-31T08:00:37;20.07;;;11.07;;
3843;SDS011;1937;51.444;6.484;2022-10-31T08:03:07;21.30;;;10.80;;
3843;SDS011;1937;51.444;6.484;2022-10-31T08:05:37;21.57;;;11.17;;
3843;SDS011;1937;51.444;6.484;2022-10-31T08:08:06;16.53;;;10.87;;
3843;SDS011;1937;51.444;6.484;2022-10-31T08:10:36;19.63;;;12.03;;
3843;SDS011;1937;51.444;6.484;2022-10-31T08:13:07;15.40;;;9.73;;
3843;SDS011;1937;51.444;6.484;2022-10-31T08:15:37;21.77;;;12.90;;
3843;SDS011;1937;51.444;6.484;2022-10-31T08:18:07;15.40;;;11.20;;
3843;SDS011;1937;51.444;6.484;2022-10-31T08:20:39;17.03;;;10.93;;
3843;SDS011;1937;51.444;6.484;2022-10-31T08:23:09;19.90;;;11.23;;
3843;SDS011;1937;51.444;6.484;2022-10-31T08:25:40;16.50;;;11.73;;
3843;SDS011;1937;51.444;6.484;2022-10-31T08:28:08;19.17;;;12.07;;
3843;SDS011;1937;51.444;6.484;2022-10-31T08:30:37;15.30;;;10.13;;
3843;SDS011;1937;51.444;6.484;2022-10-31T08:33:08;24.17;;;10.90;;
3843;SDS011;1937;51.444;6.484;2022-10-31T08:35:40;18.13;;;10.77;;
3843;SDS011;1937;51.444;6.484;2022-10-31T08:38:09;20.43;;;10.30;;
3843;SDS011;1937;51.444;6.484;2022-10-31T08:40:40;20.90;;;11.47;;
3843;SDS011;1937;51.444;6.484;2022-10-31T08:43:11;17.10;;;11.00;;
3843;SDS011;1937;51.444;6.484;2022-10-31T08:45:41;18.53;;;10.33;;
3843;SDS011;1937;51.444;6.484;2022-10-31T08:48:10;15.90;;;9.63;;
3843;SDS011;1937;51.444;6.484;2022-10-31T08:50:40;17.53;;;10.70;;
3843;SDS011;1937;51.444;6.484;2022-10-31T08:53:10;22.90;;;10.90;;
3843;SDS011;1937;51.444;6.484;2022-10-31T08:55:44;15.80;;;9.17;;
3843;SDS011;1937;51.444;6.484;2022-10-31T08:58:20;15.73;;;10.03;;
3843;SDS011;1937;51.444;6.484;2022-10-31T09:00:53;17.27;;;11.17;;
3843;SDS011;1937;51.444;6.484;2022-10-31T09:03:23;16.80;;;9.23;;
3843;SDS011;1937;51.444;6.484;2022-10-31T09:05:54;18.83;;;10.53;;
3843;SDS011;1937;51.444;6.484;2022-10-31T09:08:24;17.27;;;10.13;;
3843;SDS011;1937;51.444;6.484;2022-10-31T09:10:57;20.67;;;10.50;;
3843;SDS011;1937;51.444;6.484;2022-10-31T09:13:25;22.00;;;10.93;;
3843;SDS011;1937;51.444;6.484;2022-10-31T09:15:55;21.70;;;11.23;;
3843;SDS011;1937;51.444;6.484;2022-10-31T09:18:24;20.03;;;11.47;;
3843;SDS011;1937;51.444;6.484;2022-10-31T09:20:53;18.77;;;10.93;;
3843;SDS011;1937;51.444;6.484;2022-10-31T09:23:29;25.80;;;11.37;;
3843;SDS011;1937;51.444;6.484;2022-10-31T09:26:00;16.40;;;9.27;;
3843;SDS011;1937;51.444;6.484;2022-10-31T09:28:29;22.73;;;11.53;;
3843;SDS011;1937;51.444;6.484;2022-10-31T09:30:58;17.83;;;10.83;;
3843;SDS011;1937;51.444;6.484;2022-10-31T09:33:27;19.90;;;11.17;;
3843;SDS011;1937;51.444;6.484;2022-10-31T09:35:57;15.50;;;10.50;;
3843;SDS011;1937;51.444;6.484;2022-10-31T09:38:26;16.80;;;9.30;;
3843;SDS011;1937;51.444;6.484;2022-10-31T09:40:54;19.07;;;11.33;;
3843;SDS011;1937;51.444;6.484;2022-10-31T09:43:34;22.10;;;12.47;;
3843;SDS011;1937;51.444;6.484;2022-10-31T09:46:13;18.60;;;12.07;;
3843;SDS011;1937;51.444;6.484;2022-10-31T09:48:55;20.80;;;11.97;;
3843;SDS011;1937;51.444;6.484;2022-10-31T09:51:35;22.90;;;12.23;;
3843;SDS011;1937;51.444;6.484;2022-10-31T09:54:09;22.50;;;11.80;;
3843;SDS011;1937;51.444;6.484;2022-10-31T09:56:41;28.50;;;13.10;;
3843;SDS011;1937;51.444;6.484;2022-10-31T09:59:24;24.17;;;12.20;;
3843;SDS011;1937;51.444;6.484;2022-10-31T10:01:56;25.00;;;12.40;;
3843;SDS011;1937;51.444;6.484;2022-10-31T10:04:32;29.47;;;13.90;;
3843;SDS011;1937;51.444;6.484;2022-10-31T10:07:08;23.90;;;11.97;;
3843;SDS011;1937;51.444;6.484;2022-10-31T10:09:40;31.40;;;13.73;;
3843;SDS011;1937;51.444;6.484;2022-10-31T10:12:12;26.60;;;14.57;;
3843;SDS011;1937;51.444;6.484;2022-10-31T10:14:50;29.63;;;14.47;;
3843;SDS011;1937;51.444;6.484;2022-10-31T10:17:26;24.40;;;13.70;;
3843;SDS011;1937;51.444;6.484;2022-10-31T10:20:07;23.07;;;14.00;;
3843;SDS011;1937;51.444;6.484;2022-10-31T10:22:46;26.20;;;14.43;;
3843;SDS011;1937;51.444;6.484;2022-10-31T10:25:20;32.43;;;14.83;;
3843;SDS011;1937;51.444;6.484;2022-10-31T10:28:02;23.60;;;14.10;;
3843;SDS011;1937;51.444;6.484;2022-10-31T10:30:38;31.60;;;15.70;;
3843;SDS011;1937;51.444;6.484;2022-10-31T10:33:11;30.20;;;14.47;;
3843;SDS011;1937;51.444;6.484;2022-10-31T10:35:42;29.80;;;16.30;;
3843;SDS011;1937;51.444;6.484;2022-10-31T10:38:17;25.60;;;15.07;;
3843;SDS011;1937;51.444;6.484;2022-10-31T10:40:51;24.60;;;13.60;;
3843;SDS011;1937;51.444;6.484;2022-10-31T10:43:23;21.63;;;12.40;;
3843;SDS011;1937;51.444;6.484;2022-10-31T10:46:00;21.00;;;12.73;;
3843;SDS011;1937;51.444;6.484;2022-10-31T10:49:01;25.80;;;13.70;;
3843;SDS011;1937;51.444;6.484;2022-10-31T10:51:37;23.07;;;13.53;;
3843;SDS011;1937;51.444;6.484;2022-10-31T10:57:15;33.13;;;14.47;;
3843;SDS011;1937;51.444;6.484;2022-10-31T10:59:54;27.90;;;14.70;;
3843;SDS011;1937;51.444;6.484;2022-10-31T11:02:27;25.40;;;13.90;;
3843;SDS011;1937;51.444;6.484;2022-10-31T11:05:00;29.30;;;16.00;;
3843;SDS011;1937;51.444;6.484;2022-10-31T11:07:37;30.10;;;15.80;;
3843;SDS011;1937;51.444;6.484;2022-10-31T11:10:06;29.50;;;16.50;;
3843;SDS011;1937;51.444;6.484;2022-10-31T11:12:41;41.27;;;16.40;;
3843;SDS011;1937;51.444;6.484;2022-10-31T11:15:18;28.87;;;14.53;;
3843;SDS011;1937;51.444;6.484;2022-10-31T11:17:51;25.40;;;14.23;;
3843;SDS011;1937;51.444;6.484;2022-10-31T11:20:31;30.40;;;14.50;;
3843;SDS011;1937;51.444;6.484;2022-10-31T11:23:03;28.40;;;14.93;;
3843;SDS011;1937;51.444;6.484;2022-10-31T11:25:47;27.20;;;14.53;;
3843;SDS011;1937;51.444;6.484;2022-10-31T11:28:17;31.30;;;14.43;;
3843;SDS011;1937;51.444;6.484;2022-10-31T11:30:47;26.47;;;15.40;;
3843;SDS011;1937;51.444;6.484;2022-10-31T11:33:20;27.43;;;14.40;;
3843;SDS011;1937;51.444;6.484;2022-10-31T11:35:53;27.83;;;14.20;;
3843;SDS011;1937;51.444;6.484;2022-10-31T11:38:22;27.30;;;13.00;;
3843;SDS011;1937;51.444;6.484;2022-10-31T11:40:53;23.63;;;13.77;;
3843;SDS011;1937;51.444;6.484;2022-10-31T11:43:23;25.47;;;13.77;;
3843;SDS011;1937;51.444;6.484;2022-10-31T11:45:52;34.87;;;12.73;;
3843;SDS011;1937;51.444;6.484;2022-10-31T11:48:23;29.13;;;15.30;;
3843;SDS011;1937;51.444;6.484;2022-10-31T11:50:53;33.27;;;14.53;;
3843;SDS011;1937;51.444;6.484;2022-10-31T11:53:25;24.10;;;13.10;;
3843;SDS011;1937;51.444;6.484;2022-10-31T11:56:05;21.77;;;12.67;;
3843;SDS011;1937;51.444;6.484;2022-10-31T11:58:40;20.97;;;13.20;;
3843;SDS011;1937;51.444;6.484;2022-10-31T12:01:19;28.80;;;13.83;;
3843;SDS011;1937;51.444;6.484;2022-10-31T12:03:53;25.30;;;13.80;;
3843;SDS011;1937;51.444;6.484;2022-10-31T12:06:30;28.17;;;13.57;;
3843;SDS011;1937;51.444;6.484;2022-10-31T12:09:01;38.07;;;13.90;;
3843;SDS011;1937;51.444;6.484;2022-10-31T12:11:40;25.47;;;14.00;;
3843;SDS011;1937;51.444;6.484;2022-10-31T12:14:19;24.40;;;13.07;;
3843;SDS011;1937;51.444;6.484;2022-10-31T12:16:55;21.53;;;10.50;;
3843;SDS011;1937;51.444;6.484;2022-10-31T12:19:35;29.20;;;10.80;;
3843;SDS011;1937;51.444;6.484;2022-10-31T12:22:11;17.43;;;9.80;;
3843;SDS011;1937;51.444;6.484;2022-10-31T12:24:47;22.20;;;10.73;;
3843;SDS011;1937;51.444;6.484;2022-10-31T12:27:27;24.03;;;10.10;;
3843;SDS011;1937;51.444;6.484;2022-10-31T12:30:17;21.47;;;10.20;;
3843;SDS011;1937;51.444;6.484;2022-10-31T12:33:01;22.00;;;9.53;;
3843;SDS011;1937;51.444;6.484;2022-10-31T12:35:42;18.00;;;9.60;;
3843;SDS011;1937;51.444;6.484;2022-10-31T12:38:24;21.17;;;11.40;;
3843;SDS011;1937;51.444;6.484;2022-10-31T12:41:13;17.63;;;10.30;;
3843;SDS011;1937;51.444;6.484;2022-10-31T12:44:04;18.37;;;9.73;;
3843;SDS011;1937;51.444;6.484;2022-10-31T12:46:55;23.50;;;9.83;;
3843;SDS011;1937;51.444;6.484;2022-10-31T12:49:47;20.23;;;8.67;;
3843;SDS011;1937;51.444;6.484;2022-10-31T12:52:26;14.90;;;8.93;;
3843;SDS011;1937;51.444;6.484;2022-10-31T12:57:54;14.30;;;8.37;;
3843;SDS011;1937;51.444;6.484;2022-10-31T13:00:27;18.23;;;9.03;;
3843;SDS011;1937;51.444;6.484;2022-10-31T13:02:58;23.33;;;8.10;;
3843;SDS011;1937;51.444;6.484;2022-10-31T13:05:40;12.13;;;7.63;;
3843;SDS011;1937;51.444;6.484;2022-10-31T13:08:14;14.50;;;7.63;;
3843;SDS011;1937;51.444;6.484;2022-10-31T13:10:50;14.53;;;7.40;;
3843;SDS011;1937;51.444;6.484;2022-10-31T13:13:26;14.93;;;7.50;;
3843;SDS011;1937;51.444;6.484;2022-10-31T13:16:00;15.20;;;7.30;;
3843;SDS011;1937;51.444;6.484;2022-10-31T13:18:32;9.93;;;6.43;;
3843;SDS011;1937;51.444;6.484;2022-10-31T13:21:16;9.10;;;5.83;;
3843;SDS011;1937;51.444;6.484;2022-10-31T13:23:50;17.57;;;7.70;;
3843;SDS011;1937;51.444;6.484;2022-10-31T13:26:22;15.97;;;7.87;;
3843;SDS011;1937;51.444;6.484;2022-10-31T13:29:00;15.60;;;6.30;;
3843;SDS011;1937;51.444;6.484;2022-10-31T13:31:35;11.40;;;6.33;;
3843;SDS011;1937;51.444;6.484;2022-10-31T13:34:09;19.80;;;7.23;;
3843;SDS011;1937;51.444;6.484;2022-10-31T13:36:48;18.73;;;7.37;;
3843;SDS011;1937;51.444;6.484;2022-10-31T13:39:26;10.40;;;6.33;;
3843;SDS011;1937;51.444;6.484;2022-10-31T13:42:10;16.57;;;6.83;;
3843;SDS011;1937;51.444;6.484;2022-10-31T13:44:43;11.60;;;6.07;;
3843;SDS011;1937;51.444;6.484;2022-10-31T13:47:26;8.73;;;5.23;;
3843;SDS011;1937;51.444;6.484;2022-10-31T13:50:03;13.60;;;6.50;;
3843;SDS011;1937;51.444;6.484;2022-10-31T13:52:46;11.83;;;6.13;;
3843;SDS011;1937;51.444;6.484;2022-10-31T13:58:04;11.17;;;6.23;;
3843;SDS011;1937;51.444;6.484;2022-10-31T14:00:57;13.00;;;5.87;;
3843;SDS011;1937;51.444;6.484;2022-10-31T14:03:25;8.13;;;5.20;;
3843;SDS011;1937;51.444;6.484;2022-10-31T14:05:54;13.10;;;6.40;;
3843;SDS011;1937;51.444;6.484;2022-10-31T14:08:24;10.20;;;5.90;;
3843;SDS011;1937;51.444;6.484;2022-10-31T14:11:02;15.00;;;5.33;;
3843;SDS011;1937;51.444;6.484;2022-10-31T14:13:34;10.90;;;5.47;;
3843;SDS011;1937;51.444;6.484;2022-10-31T14:16:16;11.10;;;5.47;;
3843;SDS011;1937;51.444;6.484;2022-10-31T14:18:50;8.67;;;5.50;;
3843;SDS011;1937;51.444;6.484;2022-10-31T14:21:28;9.57;;;5.37;;
3843;SDS011;1937;51.444;6.484;2022-10-31T14:24:03;12.13;;;4.80;;
3843;SDS011;1937;51.444;6.484;2022-10-31T14:26:52;13.17;;;5.47;;
3843;SDS011;1937;51.444;6.484;2022-10-31T14:29:26;8.70;;;4.77;;
3843;SDS011;1937;51.444;6.484;2022-10-31T14:31:56;12.07;;;5.70;;
3843;SDS011;1937;51.444;6.484;2022-10-31T14:34:27;10.33;;;5.23;;
3843;SDS011;1937;51.444;6.484;2022-10-31T14:37:07;8.63;;;5.00;;
3843;SDS011;1937;51.444;6.484;2022-10-31T14:39:44;7.13;;;4.43;;
3843;SDS011;1937;51.444;6.484;2022-10-31T14:42:26;13.20;;;5.50;;
3843;SDS011;1937;51.444;6.484;2022-10-31T14:45:08;8.83;;;4.43;;
3843;SDS011;1937;51.444;6.484;2022-10-31T14:47:49;13.60;;;4.33;;
3843;SDS011;1937;51.444;6.484;2022-10-31T14:50:26;6.50;;;5.37;;
3843;SDS011;1937;51.444;6.484;2022-10-31T14:53:04;7.57;;;4.50;;
3843;SDS011;1937;51.444;6.484;2022-10-31T14:55:39;15.63;;;4.70;;
3843;SDS011;1937;51.444;6.484;2022-10-31T14:58:15;11.23;;;4.30;;
3843;SDS011;1937;51.444;6.484;2022-10-31T15:00:47;6.60;;;4.60;;
3843;SDS011;1937;51.444;6.484;2022-10-31T15:03:22;8.27;;;4.60;;
3843;SDS011;1937;51.444;6.484;2022-10-31T15:05:53;10.17;;;3.83;;
3843;SDS011;1937;51.444;6.484;2022-10-31T15:08:26;9.17;;;4.47;;
3843;SDS011;1937;51.444;6.484;2022-10-31T15:10:55;9.83;;;5.00;;
3843;SDS011;1937;51.444;6.484;2022-10-31T15:13:29;8.33;;;4.57;;
3843;SDS011;1937;51.444;6.484;2022-10-31T15:15:58;6.67;;;4.17;;
3843;SDS011;1937;51.444;6.484;2022-10-31T15:18:27;9.60;;;4.10;;
3843;SDS011;1937;51.444;6.484;2022-10-31T15:20:56;11.77;;;4.43;;
3843;SDS011;1937;51.444;6.484;2022-10-31T15:23:25;8.53;;;4.73;;
3843;SDS011;1937;51.444;6.484;2022-10-31T15:26:00;9.43;;;3.90;;
3843;SDS011;1937;51.444;6.484;2022-10-31T15:28:31;9.90;;;5.03;;
3843;SDS011;1937;51.444;6.484;2022-10-31T15:31:00;9.90;;;4.03;;
3843;SDS011;1937;51.444;6.484;2022-10-31T15:33:29;9.80;;;4.37;;
3843;SDS011;1937;51.444;6.484;2022-10-31T15:36:05;6.53;;;4.23;;
3843;SDS011;1937;51.444;6.484;2022-10-31T15:38:44;13.53;;;5.33;;
3843;SDS011;1937;51.444;6.484;2022-10-31T15:41:21;7.13;;;5.10;;
3843;SDS011;1937;51.444;6.484;2022-10-31T15:43:55;6.83;;;4.60;;
3843;SDS011;1937;51.444;6.484;2022-10-31T15:46:27;10.00;;;5.10;;